createdAt,value
2022-10-29T00:01:44.228Z,999.90
2022-10-29T00:04:11.902Z,999.90
2022-10-29T00:06:39.612Z,999.90
2022-10-29T00:09:07.417Z,999.90
2022-10-29T00:11:35.492Z,999.90
2022-10-29T00:14:04.644Z,999.90
2022-10-29T00:16:37.333Z,999.90
2022-10-29T00:19:05.352Z,999.90
2022-10-29T00:21:34.437Z,999.90
2022-10-29T00:24:02.143Z,999.90
2022-10-29T00:26:30.766Z,999.90
2022-10-29T00:28:58.505Z,999.90
2022-10-29T00:31:27.684Z,999.90
2022-10-29T00:33:56.479Z,999.90
2022-10-29T00:36:26.228Z,999.90
2022-10-29T00:38:53.863Z,999.90
2022-10-29T00:41:26.368Z,999.90
2022-10-29T00:44:27.027Z,999.90
2022-10-29T00:46:59.495Z,999.90
2022-10-29T00:49:27.762Z,999.90
2022-10-29T00:51:55.907Z,999.90
2022-10-29T00:54:23.724Z,999.90
2022-10-29T00:56:53.989Z,999.90
2022-10-29T00:59:21.683Z,999.90
2022-10-29T01:01:49.948Z,999.90
2022-10-29T01:04:19.687Z,999.90
2022-10-29T01:06:47.545Z,999.90
2022-10-29T01:09:15.218Z,999.90
2022-10-29T01:11:52.107Z,999.90
2022-10-29T01:14:26.708Z,999.90
2022-10-29T01:16:58.795Z,999.90
2022-10-29T01:19:43.827Z,999.90
2022-10-29T01:22:15.370Z,999.90
2022-10-29T01:24:53.608Z,999.90
2022-10-29T01:27:58.797Z,999.90
2022-10-29T01:31:02.210Z,999.90
2022-10-29T01:33:35.286Z,999.90
2022-10-29T01:36:07.665Z,999.90
2022-10-29T01:38:38.323Z,999.90
2022-10-29T01:41:10.182Z,999.90
2022-10-29T01:43:40.453Z,999.90
2022-10-29T01:46:13.692Z,999.90
2022-10-29T01:48:44.794Z,999.90
2022-10-29T01:51:19.283Z,999.90
2022-10-29T01:53:47.408Z,999.90
2022-10-29T01:56:15.041Z,999.90
2022-10-29T01:58:47.084Z,999.90
2022-10-29T02:01:24.862Z,999.90
2022-10-29T02:03:58.271Z,999.90
2022-10-29T02:06:33.452Z,999.90
2022-10-29T02:09:06.349Z,999.90
2022-10-29T02:11:38.560Z,999.90
2022-10-29T02:14:08.633Z,999.90
2022-10-29T02:16:38.018Z,999.90
2022-10-29T02:19:06.472Z,999.90
2022-10-29T02:21:34.165Z,999.90
2022-10-29T02:24:01.840Z,999.90
2022-10-29T02:26:29.486Z,999.90
2022-10-29T02:28:57.308Z,999.90
2022-10-29T02:31:24.943Z,999.90
2022-10-29T02:33:53.935Z,999.90
2022-10-29T02:36:21.588Z,999.90
2022-10-29T02:38:49.236Z,999.90
2022-10-29T02:41:16.848Z,999.90
2022-10-29T02:43:44.512Z,999.90
2022-10-29T02:46:16.273Z,999.90
2022-10-29T02:48:44.019Z,999.90
2022-10-29T02:51:13.153Z,999.90
2022-10-29T02:53:40.896Z,999.90
2022-10-29T02:56:09.122Z,999.90
2022-10-29T02:58:37.252Z,999.90
2022-10-29T03:01:05.569Z,999.90
2022-10-29T03:03:33.199Z,999.90
2022-10-29T03:06:00.858Z,999.90
2022-10-29T03:08:29.878Z,999.90
2022-10-29T03:10:57.576Z,999.90
2022-10-29T03:13:25.319Z,999.90
2022-10-29T03:15:52.952Z,999.90
2022-10-29T03:18:20.567Z,999.90
2022-10-29T03:20:48.519Z,999.90
2022-10-29T03:23:16.261Z,999.90
2022-10-29T03:25:45.629Z,999.90
2022-10-29T03:28:13.266Z,999.90
2022-10-29T03:30:40.903Z,999.90
2022-10-29T03:33:08.521Z,999.90
2022-10-29T03:35:36.328Z,999.90
2022-10-29T03:38:04.036Z,999.90
2022-10-29T03:40:31.685Z,999.90
2022-10-29T03:43:00.725Z,999.90
2022-10-29T03:45:28.356Z,999.90
2022-10-29T03:47:57.263Z,999.90
2022-10-29T03:50:25.147Z,999.90
2022-10-29T03:52:52.800Z,999.90
2022-10-29T03:55:20.419Z,999.90
2022-10-29T03:57:48.101Z,999.90
2022-10-29T04:00:17.879Z,999.90
2022-10-29T04:02:45.954Z,999.90
2022-10-29T04:05:13.665Z,999.90
2022-10-29T04:07:41.303Z,999.90
2022-10-29T04:10:09.665Z,999.90
2022-10-29T04:12:37.325Z,999.90
2022-10-29T04:15:05.602Z,999.90
2022-10-29T04:17:34.873Z,999.90
2022-10-29T04:20:02.631Z,999.90
2022-10-29T04:25:02.919Z,999.90
2022-10-29T04:30:54.119Z,999.90
2022-10-29T04:33:23.137Z,999.90
2022-10-29T04:35:54.346Z,999.90
2022-10-29T04:38:22.584Z,999.90
2022-10-29T04:40:50.353Z,999.90
2022-10-29T04:43:18.305Z,999.90
2022-10-29T04:45:45.958Z,999.90
2022-10-29T04:48:13.588Z,999.90
2022-10-29T04:50:42.593Z,999.90
2022-10-29T04:53:10.228Z,999.90
2022-10-29T04:55:39.197Z,999.90
2022-10-29T04:58:07.265Z,999.90
2022-10-29T05:00:35.302Z,999.90
2022-10-29T05:03:02.936Z,999.90
2022-10-29T05:05:30.794Z,999.90
2022-10-29T05:08:00.624Z,999.90
2022-10-29T05:10:28.912Z,999.90
2022-10-29T05:13:00.264Z,999.90
2022-10-29T05:15:28.829Z,999.90
2022-10-29T05:17:57.271Z,999.90
2022-10-29T05:20:25.471Z,999.90
2022-10-29T05:23:00.920Z,999.90
2022-10-29T05:25:28.855Z,999.90
2022-10-29T05:28:03.679Z,999.90
2022-10-29T05:30:31.625Z,999.90
2022-10-29T05:32:59.416Z,999.90
2022-10-29T05:35:27.658Z,999.90
2022-10-29T05:37:55.736Z,999.90
2022-10-29T05:40:25.389Z,999.90
2022-10-29T05:42:53.103Z,999.90
2022-10-29T05:45:21.012Z,999.90
2022-10-29T05:47:48.722Z,999.90
2022-10-29T05:50:16.558Z,999.90
2022-10-29T05:52:44.213Z,999.90
2022-10-29T05:55:13.964Z,999.90
2022-10-29T05:57:42.950Z,999.90
2022-10-29T06:00:11.684Z,999.90
2022-10-29T06:02:39.365Z,999.90
2022-10-29T06:05:07.942Z,999.90
2022-10-29T06:07:35.603Z,999.90
2022-10-29T06:10:03.208Z,999.90
2022-10-29T06:12:34.815Z,999.90
2022-10-29T06:15:04.254Z,999.90
2022-10-29T06:17:31.880Z,999.90
2022-10-29T06:19:59.520Z,999.90
2022-10-29T06:22:27.170Z,999.90
2022-10-29T06:24:54.803Z,999.90
2022-10-29T06:27:22.453Z,999.90
2022-10-29T06:29:50.073Z,999.90
2022-10-29T06:32:19.075Z,999.90
2022-10-29T06:34:46.698Z,999.90
2022-10-29T06:37:14.374Z,999.90
2022-10-29T06:39:42.028Z,999.90
2022-10-29T06:42:09.688Z,999.90
2022-10-29T06:44:37.346Z,999.90
2022-10-29T06:47:05.033Z,999.90
2022-10-29T06:49:34.015Z,999.90
2022-10-29T15:10:45.564Z,41.97
2022-10-29T15:13:22.630Z,40.78
2022-10-29T15:15:59.131Z,37.80
2022-10-29T15:18:27.370Z,31.53
2022-10-29T15:23:28.042Z,62.65
2022-10-29T15:25:59.749Z,43.83
2022-10-29T15:28:29.204Z,41.47
2022-10-29T15:30:57.518Z,37.90
2022-10-29T15:41:35.499Z,51.33
2022-10-29T15:44:03.174Z,35.93
2022-10-29T15:46:34.148Z,36.72
2022-10-29T15:49:01.776Z,36.63
2022-10-29T15:56:25.460Z,49.40
2022-10-29T15:58:54.757Z,33.90
2022-10-29T16:01:22.556Z,35.60
2022-10-29T16:03:50.343Z,35.50
2022-10-29T16:06:18.102Z,38.92
2022-10-29T16:08:48.693Z,46.33
2022-10-29T16:11:20.050Z,41.43
2022-10-29T16:13:53.437Z,33.20
2022-10-29T16:18:52.779Z,55.38
2022-10-29T16:21:22.173Z,40.87
2022-10-29T16:23:50.552Z,34.73
2022-10-29T16:26:20.077Z,34.80
2022-10-29T16:28:47.739Z,37.80
2022-10-29T16:31:20.286Z,32.03
2022-10-29T16:33:49.756Z,39.00
2022-10-29T16:36:17.708Z,41.50
2022-10-29T16:41:13.442Z,50.78
2022-10-29T16:43:41.123Z,36.70
2022-10-29T16:46:09.044Z,35.80
2022-10-29T16:51:05.931Z,53.20
2022-10-29T16:53:33.604Z,37.03
2022-10-29T16:56:01.632Z,27.02
2022-10-29T16:58:29.335Z,33.38
2022-10-29T17:01:03.141Z,35.30
2022-10-29T17:03:30.867Z,32.90
2022-10-29T17:06:05.642Z,32.50
2022-10-29T17:08:34.265Z,54.38
2022-10-29T17:11:02.516Z,40.03
2022-10-29T17:13:30.131Z,36.30
2022-10-29T17:15:58.176Z,38.17
2022-10-29T17:18:25.890Z,49.40
2022-10-29T17:20:58.034Z,42.40
2022-10-29T17:23:27.129Z,41.87
2022-10-29T17:25:55.355Z,47.70
2022-10-29T17:28:23.324Z,50.87
2022-10-29T17:30:51.043Z,39.10
2022-10-29T17:33:18.989Z,62.13
2022-10-29T17:35:46.932Z,51.17
2022-10-29T17:38:14.729Z,38.23
2022-10-29T17:40:46.168Z,42.00
2022-10-29T17:43:13.896Z,39.57
2022-10-29T17:45:43.658Z,42.75
2022-10-29T17:48:11.405Z,38.03
2022-10-29T17:50:39.028Z,47.77
2022-10-29T17:53:06.687Z,42.93
2022-10-29T17:55:34.720Z,42.33
2022-10-29T17:58:03.695Z,43.90
2022-10-29T18:00:31.347Z,40.72
2022-10-29T18:05:27.528Z,39.83
2022-10-29T18:07:55.561Z,36.78
2022-10-29T18:15:21.316Z,51.10
2022-10-29T18:20:17.069Z,51.67
2022-10-29T18:22:44.909Z,44.23
2022-10-29T18:25:12.859Z,40.10
2022-10-29T18:27:41.057Z,40.63
2022-10-29T18:30:10.065Z,38.10
2022-10-29T18:32:39.088Z,36.60
2022-10-29T18:35:07.708Z,37.73
2022-10-29T18:37:35.347Z,37.87
2022-10-29T18:40:03.030Z,38.47
2022-10-29T18:42:31.457Z,39.47
2022-10-29T18:44:59.104Z,39.00
2022-10-29T18:47:26.719Z,39.00
2022-10-29T18:49:55.754Z,35.70
2022-10-29T18:52:23.376Z,34.05
2022-10-29T18:57:19.497Z,55.07
2022-10-29T18:59:48.946Z,34.97
2022-10-29T19:02:16.705Z,33.50
2022-10-29T19:04:44.427Z,33.20
2022-10-29T19:07:13.440Z,33.85
2022-10-29T19:12:08.715Z,48.20
2022-10-29T19:14:36.364Z,31.10
2022-10-29T19:19:31.897Z,49.78
2022-10-29T19:26:55.820Z,46.80
2022-10-29T19:31:50.973Z,40.05
2022-10-29T19:36:46.074Z,48.33
2022-10-29T19:41:42.545Z,47.33
2022-10-29T19:49:05.145Z,48.75
2022-10-29T19:51:32.774Z,16.20
2022-10-29T19:54:02.004Z,24.57
2022-10-29T19:58:58.555Z,48.03
2022-10-29T20:01:26.347Z,19.05
2022-10-29T20:06:21.564Z,45.60
2022-10-29T20:08:49.195Z,34.70
2022-10-29T20:11:17.343Z,24.93
2022-10-29T20:13:44.977Z,33.67
2022-10-29T20:16:17.241Z,32.40
2022-10-29T20:18:45.065Z,36.83
2022-10-29T20:21:13.635Z,29.98
2022-10-29T20:23:41.315Z,30.48
2022-10-29T20:36:18.780Z,48.83
2022-10-29T20:43:43.783Z,49.30
2022-10-29T20:48:40.217Z,43.70
2022-10-29T20:56:02.814Z,43.30
2022-10-29T21:03:33.807Z,48.13
2022-10-29T21:08:31.146Z,45.45
